Keshan, China
Current Conditions -  °F | °C
As of 9:00 AM on Wednesday 22 Oct 2014 (Local Time) from ZYHB Reporting Station
Smoke Smoke  
Wind Chill: 27°   Ceiling: Unl
Heat Index: 34°   Visibility: 0.87mi
Dew Point:   Wind: 9mph
Humidity: 35%   Direction: 200°SSW
Pressure: 30.24"   Gusts: NA
Location:  48.03°N, 125.86°E
Report Text: ZYHB 220100Z 20004MPS 1400 R23/1100N FU NSC 01/M13 Q1024 BECMGTL02302000
Loading
Personal Weather Stations






























Interactive Weather Map New forecast layout! Learn more

10-Day Weather Forecast

Advertisements
Track Severe Weather on mobile